2009 BILLY (2008350S10129)


On this page: IBTrACS data - Map and Plots - Positions - Intensities - Original source data

Summary

Start Dec 15
End Jan 5
Basin SI
LMI 110 kt
Sources jtwc_sh
bom
In WMO? Yes
Previous storm 2009 CINDA (SI)
Previous in basin 2009 CINDA (SI)
Concurrent storms 2008 DOLPHIN (WP)
2009 CINDA (SI)
2009 BILLY (SI)
Next in basin 2009 DONGO (SI)
Next storm 2009 DONGO (SI)

top of page IBTrACS Data: File Access

No storm imagery available

top of page Plots:

Map of storm track will not appear if FTP is down
Time series of cyclone Maximum Sustained Wind will not appear if FTP is down
Time series of cyclone Minimum Central Pressure will not appear if FTP is down

top of page Track Data:Position

jtwc_sh bom
Date Lat Lon Lat Lon
2008-12-15 00:00:00 -10.2 128.7
2008-12-15 06:00:00 -10.3 128.6
2008-12-15 12:00:00 -10.3 128.4
2008-12-15 18:00:00 -10.4 128.3
2008-12-16 00:00:00 -10.6 127.5
2008-12-16 06:00:00 -11.0 127.5
2008-12-16 12:00:00 -11.3 127.3
2008-12-16 18:00:00 -11.7 127.8
2008-12-17 00:00:00 -12.3 127.2
2008-12-17 06:00:00 -12.8 127.4 -12.7 127.5
2008-12-17 12:00:00 -13.0 127.7 -12.8 127.5
2008-12-17 18:00:00 -13.4 127.9 -13.5 127.7
2008-12-18 00:00:00 -13.7 128.2 -13.8 128.3
2008-12-18 06:00:00 -14.0 128.6 -14.1 128.6
2008-12-18 12:00:00 -14.5 128.8 -14.5 128.8
2008-12-18 18:00:00 -14.8 128.8 -14.6 128.8
2008-12-19 00:00:00 -14.7 128.7 -14.4 128.8
2008-12-19 06:00:00 -14.6 128.6 -14.5 128.7
2008-12-19 12:00:00 -14.7 128.5 -14.6 128.6
2008-12-19 18:00:00 -14.9 128.3 -14.9 128.1
2008-12-20 00:00:00 -14.9 127.9 -14.9 127.9
2008-12-20 06:00:00 -15.1 127.4 -15.1 127.4
2008-12-20 12:00:00 -15.3 126.9 -15.2 126.9
2008-12-20 18:00:00 -15.3 126.5 -15.1 126.3
2008-12-21 00:00:00 -15.2 126.1 -15.1 126.0
jtwc_sh bom
2008-12-21 06:00:00 -15.2 125.8 -15.1 125.8
2008-12-21 12:00:00 -15.3 125.4 -15.3 125.5
2008-12-21 18:00:00 -15.3 124.9 -15.4 125.1
2008-12-22 00:00:00 -15.5 124.3 -15.6 124.7
2008-12-22 06:00:00 -15.9 123.8 -15.9 124.0
2008-12-22 12:00:00 -16.6 123.5 -16.3 123.4
2008-12-22 18:00:00 -16.7 122.9 -16.6 122.8
2008-12-23 00:00:00 -17.2 122.2 -17.2 122.2
2008-12-23 06:00:00 -17.8 121.4 -17.6 121.2
2008-12-23 12:00:00 -17.8 120.8 -17.8 120.8
2008-12-23 18:00:00 -17.9 120.3 -17.9 120.3
2008-12-24 00:00:00 -17.9 119.8 -17.8 119.9
2008-12-24 06:00:00 -17.8 119.2 -17.8 119.2
2008-12-24 12:00:00 -17.8 118.6 -17.8 118.6
2008-12-24 18:00:00 -17.6 117.9 -17.6 117.9
2008-12-25 00:00:00 -17.5 117.3 -17.5 117.2
2008-12-25 06:00:00 -17.3 116.6 -17.3 116.6
2008-12-25 12:00:00 -16.9 116.0 -16.9 116.0
2008-12-25 18:00:00 -16.6 115.3 -16.3 115.3
2008-12-26 00:00:00 -16.2 114.7 -16.1 114.8
2008-12-26 06:00:00 -15.8 114.1 -15.8 114.3
2008-12-26 12:00:00 -15.6 113.8 -15.6 113.9
2008-12-26 18:00:00 -15.4 113.6 -15.4 113.6
2008-12-27 00:00:00 -15.3 113.3 -15.2 113.4
jtwc_sh bom
2008-12-27 06:00:00 -15.3 112.9 -15.2 112.9
2008-12-27 12:00:00 -15.2 112.8 -15.1 112.8
2008-12-27 18:00:00 -15.0 112.7 -15.0 112.9
2008-12-28 00:00:00 -15.0 112.9 -14.9 113.0
2008-12-28 06:00:00 -15.5 112.8 -15.5 112.7
2008-12-28 12:00:00 -16.1 112.7 -16.1 112.6
2008-12-28 18:00:00 -16.4 112.2 -16.4 112.0
2008-12-29 00:00:00 -16.5 111.3 -16.6 111.4
2008-12-29 06:00:00 -17.0 110.6 -16.7 110.6
2008-12-29 12:00:00 -17.2 109.6 -16.9 109.8
2008-12-29 18:00:00 -17.1 108.8 -16.9 108.7
2008-12-30 00:00:00 -16.9 108.0 -16.9 108.2
2008-12-30 06:00:00 -16.7 107.7 -16.8 107.7
2008-12-30 12:00:00 -16.5 107.3 -16.6 107.4
2008-12-30 18:00:00 -16.4 106.9 -16.5 106.7
2008-12-31 00:00:00 -16.2 106.3 -16.5 106.0
2008-12-31 06:00:00 -16.3 105.4 -15.9 105.2
2008-12-31 12:00:00 -16.0 104.5 -15.9 104.1
2008-12-31 18:00:00 -15.6 103.7 -15.4 103.2
2009-01-01 00:00:00 -15.2 102.5 -15.0 102.2
2009-01-01 06:00:00 -15.1 101.3 -15.0 101.5
2009-01-01 12:00:00 -15.0 100.1 -14.9 100.6
2009-01-01 18:00:00 -14.6 99.2 -14.6 99.3
2009-01-02 00:00:00 -14.3 98.2 -14.3 98.3
jtwc_sh bom
2009-01-02 06:00:00 -14.0 97.2 -13.9 97.1
2009-01-02 12:00:00 -13.8 96.0 -13.7 96.0
2009-01-02 18:00:00 -13.4 94.6 -13.5 94.6
2009-01-03 00:00:00 -13.0 93.1 -13.2 93.3
2009-01-03 06:00:00 -12.7 91.8 -13.0 92.0
2009-01-03 12:00:00 -12.6 91.2 -12.7 91.3
2009-01-03 18:00:00 -12.5 90.3 -12.6 90.2
2009-01-04 00:00:00 -12.4 89.0 -12.6 89.1
2009-01-04 06:00:00 -12.5 88.0
2009-01-04 12:00:00 -12.4 86.8
2009-01-04 18:00:00 -12.4 85.8
2009-01-05 00:00:00 -12.5 85.0
2009-01-05 06:00:00 -13.2 83.1
2009-01-05 12:00:00 -14.0 81.3
2009-01-05 18:00:00 -14.7 79.4

top of pageTrack Data:Intensity

jtwc_sh bom
Date Wind Pres Wind Pres
2008-12-15 00:00:00 1005.
2008-12-15 06:00:00 10. 1005.
2008-12-15 12:00:00 15. 1005.
2008-12-15 18:00:00 15. 1005.
2008-12-16 00:00:00 15. 1005.
2008-12-16 06:00:00 20. 1005.
2008-12-16 12:00:00 20. 1005.
2008-12-16 18:00:00 20. 1005.
2008-12-17 00:00:00 20. 1005.
2008-12-17 06:00:00 20. 1007. 20. 1006.
2008-12-17 12:00:00 20. 1007. 20. 1004.
2008-12-17 18:00:00 20. 1007. 25. 1002.
2008-12-18 00:00:00 25. 1004. 25. 1002.
2008-12-18 06:00:00 30. 1000. 30. 997.
2008-12-18 12:00:00 30. 1000. 40. 993.
2008-12-18 18:00:00 35. 996. 40. 991.
2008-12-19 00:00:00 45. 989. 45. 988.
2008-12-19 06:00:00 45. 989. 50. 983.
2008-12-19 12:00:00 45. 989. 50. 982.
2008-12-19 18:00:00 45. 989. 50. 986.
2008-12-20 00:00:00 35. 996. 35. 987.
2008-12-20 06:00:00 25. 1004. 30. 999.
2008-12-20 12:00:00 25. 1004. 30. 999.
2008-12-20 18:00:00 25. 1004. 30. 999.
2008-12-21 00:00:00 25. 1004. 30. 998.
jtwc_sh bom
2008-12-21 06:00:00 25. 1004. 30. 998.
2008-12-21 12:00:00 25. 1004. 30. 998.
2008-12-21 18:00:00 30. 1000. 30. 998.
2008-12-22 00:00:00 40. 993. 35. 996.
2008-12-22 06:00:00 40. 993. 35. 997.
2008-12-22 12:00:00 40. 993. 35. 996.
2008-12-22 18:00:00 40. 993. 35. 996.
2008-12-23 00:00:00 40. 993. 45. 989.
2008-12-23 06:00:00 40. 993. 50. 986.
2008-12-23 12:00:00 50. 985. 50. 985.
2008-12-23 18:00:00 55. 982. 60. 978.
2008-12-24 00:00:00 75. 967. 65. 976.
2008-12-24 06:00:00 90. 956. 80. 964.
2008-12-24 12:00:00 105. 944. 90. 955.
2008-12-24 18:00:00 110. 941. 95. 950.
2008-12-25 00:00:00 105. 944. 90. 955.
2008-12-25 06:00:00 105. 944. 90. 955.
2008-12-25 12:00:00 105. 944. 90. 955.
2008-12-25 18:00:00 95. 952. 85. 960.
2008-12-26 00:00:00 85. 959. 80. 964.
2008-12-26 06:00:00 80. 963. 80. 964.
2008-12-26 12:00:00 75. 967. 70. 970.
2008-12-26 18:00:00 70. 970. 60. 978.
2008-12-27 00:00:00 55. 982. 55. 981.
jtwc_sh bom
2008-12-27 06:00:00 55. 982. 50. 985.
2008-12-27 12:00:00 45. 989. 50. 985.
2008-12-27 18:00:00 45. 989. 40. 992.
2008-12-28 00:00:00 40. 993. 30. 997.
2008-12-28 06:00:00 30. 1000. 30. 999.
2008-12-28 12:00:00 30. 1000. 25. 1001.
2008-12-28 18:00:00 25. 1004. 25. 1001.
2008-12-29 00:00:00 25. 1004. 25. 1001.
2008-12-29 06:00:00 25. 1004. 25. 1002.
2008-12-29 12:00:00 25. 1004. 25. 1002.
2008-12-29 18:00:00 25. 1004. 25. 1002.
2008-12-30 00:00:00 25. 1004. 25. 1001.
2008-12-30 06:00:00 20. 1007. 25. 1001.
2008-12-30 12:00:00 20. 1007. 25. 1001.
2008-12-30 18:00:00 20. 1007. 20. 1004.
2008-12-31 00:00:00 20. 1007. 20. 1005.
2008-12-31 06:00:00 20. 1007. 20. 1005.
2008-12-31 12:00:00 20. 1007. 20. 1005.
2008-12-31 18:00:00 20. 1007. 15. 1005.
2009-01-01 00:00:00 20. 1007. 15. 1005.
2009-01-01 06:00:00 20. 1007. 15. 1005.
2009-01-01 12:00:00 20. 1007. 15. 1005.
2009-01-01 18:00:00 20. 1007. 15. 1005.
2009-01-02 00:00:00 20. 1007. 15. 1005.
jtwc_sh bom
2009-01-02 06:00:00 20. 1007. 15. 1005.
2009-01-02 12:00:00 20. 1007. 15. 1006.
2009-01-02 18:00:00 20. 1007. 15. 1006.
2009-01-03 00:00:00 20. 1007. 15. 1006.
2009-01-03 06:00:00 20. 1007. 15. 1006.
2009-01-03 12:00:00 20. 1007. 15. 1005.
2009-01-03 18:00:00 20. 1007. 15. 1005.
2009-01-04 00:00:00 15. 1010. 15. 1005.
2009-01-04 06:00:00 15. 1005.
2009-01-04 12:00:00 15. 1005.
2009-01-04 18:00:00 15. 1005.
2009-01-05 00:00:00 15. 1005.
2009-01-05 06:00:00 15. 1005.
2009-01-05 12:00:00 15. 1005.
2009-01-05 18:00:00 15. 1005.

top of page Links to source data

Source Source file Format
jtwc_sh bsh052009.txt ATCF
bom TC0709.csv:Line=397:BILLY CSV file (from Excel file)